createdAt,value
2022-09-13T00:01:03.900Z,6.07
2022-09-13T00:03:32.065Z,5.63
2022-09-13T00:05:59.770Z,5.47
2022-09-13T00:08:26.584Z,5.03
2022-09-13T00:10:53.393Z,5.38
2022-09-13T00:13:19.978Z,4.85
2022-09-13T00:15:48.614Z,5.13
2022-09-13T00:18:16.325Z,5.72
2022-09-13T00:20:43.078Z,5.70
2022-09-13T00:23:10.168Z,5.63
2022-09-13T00:25:37.063Z,5.82
2022-09-13T00:28:04.506Z,4.82
2022-09-13T00:30:31.545Z,4.90
2022-09-13T00:32:58.318Z,5.47
2022-09-13T00:35:25.250Z,4.50
2022-09-13T00:37:51.868Z,4.60
2022-09-13T00:40:18.679Z,4.93
2022-09-13T00:42:45.269Z,4.68
2022-09-13T00:45:16.910Z,5.05
2022-09-13T00:47:58.326Z,4.37
2022-09-13T00:50:39.129Z,4.30
2022-09-13T00:53:17.272Z,4.28
2022-09-13T00:55:52.537Z,4.55
2022-09-13T00:58:25.492Z,4.10
2022-09-13T01:00:53.638Z,4.28
2022-09-13T01:03:22.677Z,3.63
2022-09-13T01:05:55.032Z,4.85
2022-09-13T01:08:23.081Z,4.00
2022-09-13T01:10:52.299Z,3.92
2022-09-13T01:13:23.018Z,3.95
2022-09-13T01:15:49.608Z,3.70
2022-09-13T01:18:17.341Z,3.78
2022-09-13T01:21:39.108Z,3.33
2022-09-13T01:24:49.175Z,4.22
2022-09-13T01:27:44.774Z,3.50
2022-09-13T01:30:22.958Z,3.58
2022-09-13T01:33:25.139Z,3.72
2022-09-13T01:36:35.415Z,3.57
2022-09-13T01:40:00.627Z,3.40
2022-09-13T01:42:43.794Z,3.65
2022-09-13T01:45:52.971Z,4.20
2022-09-13T01:49:05.883Z,3.80
2022-09-13T01:52:05.994Z,3.20
2022-09-13T01:54:48.297Z,4.35
2022-09-13T01:57:42.255Z,4.10
2022-09-13T02:03:07.652Z,3.47
2022-09-13T02:05:42.333Z,3.78
2022-09-13T02:08:13.484Z,3.78
2022-09-13T02:10:49.449Z,4.10
2022-09-13T02:13:23.405Z,3.88
2022-09-13T02:16:02.451Z,3.63
2022-09-13T02:18:35.830Z,4.15
2022-09-13T02:21:09.925Z,4.07
2022-09-13T02:23:50.271Z,4.05
2022-09-13T02:26:20.705Z,4.15
2022-09-13T02:28:51.476Z,3.88
2022-09-13T02:31:25.337Z,4.30
2022-09-13T02:33:56.937Z,4.40
2022-09-13T02:36:28.502Z,4.03
2022-09-13T02:39:02.617Z,3.85
2022-09-13T02:41:46.629Z,4.13
2022-09-13T02:44:22.469Z,4.00
2022-09-13T02:47:30.896Z,4.43
2022-09-13T02:50:34.873Z,4.45
2022-09-13T02:53:44.125Z,3.60
2022-09-13T02:56:32.388Z,3.78
2022-09-13T02:59:16.319Z,3.70
2022-09-13T03:01:48.464Z,3.75
2022-09-13T03:04:15.566Z,3.80
2022-09-13T03:06:42.377Z,3.88
2022-09-13T03:09:09.453Z,4.07
2022-09-13T03:12:17.509Z,3.65
2022-09-13T03:15:16.888Z,3.60
2022-09-13T03:18:37.711Z,4.18
2022-09-13T03:21:40.066Z,3.92
2022-09-13T03:24:29.265Z,4.40
2022-09-13T03:27:37.563Z,4.07
2022-09-13T03:30:13.530Z,3.80
2022-09-13T03:33:07.192Z,4.50
2022-09-13T03:35:52.787Z,3.78
2022-09-13T03:38:25.370Z,4.13
2022-09-13T03:41:15.194Z,4.15
2022-09-13T03:43:51.835Z,3.35
2022-09-13T03:46:42.178Z,3.85
2022-09-13T03:49:13.846Z,3.85
2022-09-13T03:51:41.525Z,4.67
2022-09-13T03:54:15.192Z,3.17
2022-09-13T03:56:41.987Z,3.75
2022-09-13T03:59:08.625Z,3.78
2022-09-13T04:01:35.422Z,3.88
2022-09-13T04:04:02.259Z,4.03
2022-09-13T04:06:28.814Z,3.85
2022-09-13T04:08:55.405Z,4.13
2022-09-13T04:11:23.229Z,3.92
2022-09-13T04:13:49.910Z,3.95
2022-09-13T04:16:16.684Z,3.40
2022-09-13T04:18:43.340Z,3.50
2022-09-13T04:21:09.955Z,3.63
2022-09-13T04:23:36.631Z,3.55
2022-09-13T04:26:04.890Z,3.25
2022-09-13T04:28:31.793Z,3.72
2022-09-13T04:30:58.544Z,3.58
2022-09-13T04:33:25.209Z,3.70
2022-09-13T04:35:58.658Z,3.75
2022-09-13T04:38:25.837Z,4.25
2022-09-13T04:40:54.335Z,3.83
2022-09-13T04:43:20.995Z,3.80
2022-09-13T04:45:47.748Z,4.05
2022-09-13T04:48:14.601Z,3.70
2022-09-13T04:50:41.366Z,4.00
2022-09-13T04:53:08.180Z,4.18
2022-09-13T04:55:36.720Z,4.20
2022-09-13T04:58:04.133Z,3.63
2022-09-13T05:00:31.704Z,3.17
2022-09-13T05:02:58.555Z,4.05
2022-09-13T05:05:25.925Z,4.10
2022-09-13T05:07:52.891Z,3.85
2022-09-13T05:10:19.777Z,4.63
2022-09-13T05:12:47.168Z,3.63
2022-09-13T05:15:14.005Z,4.43
2022-09-13T05:17:40.551Z,3.80
2022-09-13T05:20:07.958Z,3.10
2022-09-13T05:22:34.507Z,3.70
2022-09-13T05:25:01.310Z,4.50
2022-09-13T05:27:28.086Z,3.75
2022-09-13T05:29:54.632Z,4.15
2022-09-13T05:32:21.202Z,3.60
2022-09-13T05:34:47.867Z,3.67
2022-09-13T05:37:14.647Z,4.07
2022-09-13T05:40:07.348Z,3.58
2022-09-13T05:42:28.013Z,3.35
2022-09-13T05:44:54.551Z,3.67
2022-09-13T05:47:21.350Z,3.72
2022-09-13T05:50:08.971Z,3.67
2022-09-13T05:52:34.671Z,4.03
2022-09-13T05:55:01.277Z,3.80
2022-09-13T05:57:28.072Z,3.30
2022-09-13T05:59:54.801Z,3.78
2022-09-13T06:02:21.657Z,4.00
2022-09-13T06:04:48.270Z,3.97
2022-09-13T06:07:14.806Z,4.28
2022-09-13T06:09:41.614Z,3.90
2022-09-13T06:12:08.245Z,3.90
2022-09-13T06:14:34.797Z,3.70
2022-09-13T06:17:01.350Z,3.55
2022-09-13T06:19:28.310Z,3.72
2022-09-13T06:21:55.074Z,3.78
2022-09-13T06:24:21.820Z,4.05
2022-09-13T06:26:48.374Z,3.75
2022-09-13T06:29:14.966Z,3.70
2022-09-13T06:31:44.950Z,3.92
2022-09-13T06:34:16.288Z,3.45
2022-09-13T06:36:43.229Z,4.05
2022-09-13T06:39:10.121Z,3.88
2022-09-13T06:41:37.518Z,4.40
2022-09-13T06:44:04.545Z,4.20
2022-09-13T06:46:34.295Z,3.67
2022-09-13T06:49:06.217Z,3.65
2022-09-13T06:51:34.234Z,3.85
2022-09-13T06:54:01.425Z,4.10
2022-09-13T06:56:33.563Z,3.85
2022-09-13T06:59:05.628Z,3.90
2022-09-13T07:01:40.906Z,3.47
2022-09-13T07:04:12.584Z,3.95
2022-09-13T07:06:41.106Z,4.23
2022-09-13T07:09:12.045Z,3.92
2022-09-13T07:11:41.009Z,4.00
2022-09-13T07:14:08.266Z,3.80
2022-09-13T07:16:37.281Z,4.15
2022-09-13T07:19:08.470Z,4.15
2022-09-13T07:21:35.836Z,3.92
2022-09-13T07:24:03.079Z,4.07
2022-09-13T07:26:30.018Z,4.20
2022-09-13T07:28:59.017Z,4.53
2022-09-13T07:31:34.459Z,4.25
2022-09-13T07:34:03.673Z,5.45
2022-09-13T07:36:31.953Z,4.82
2022-09-13T07:38:59.497Z,4.97
2022-09-13T07:41:27.645Z,5.90
2022-09-13T07:43:55.534Z,5.80
2022-09-13T07:46:24.251Z,6.32
2022-09-13T07:48:54.074Z,7.65
2022-09-13T07:51:22.889Z,6.85
2022-09-13T07:53:56.954Z,8.10
2022-09-13T07:56:30.074Z,7.97
2022-09-13T07:59:00.794Z,7.30
2022-09-13T08:01:48.054Z,7.50
2022-09-13T08:04:18.026Z,6.75
2022-09-13T08:06:46.474Z,6.97
2022-09-13T08:09:14.070Z,7.32
2022-09-13T08:11:42.896Z,5.63
2022-09-13T08:14:12.530Z,6.90
2022-09-13T08:16:39.662Z,6.75
2022-09-13T08:19:07.575Z,4.65
2022-09-13T08:21:36.930Z,5.00
2022-09-13T08:24:04.829Z,5.05
2022-09-13T08:26:33.738Z,5.35
2022-09-13T08:29:02.372Z,5.20
2022-09-13T08:31:29.250Z,5.47
2022-09-13T08:33:56.628Z,5.35
2022-09-13T08:36:24.433Z,5.43
2022-09-13T08:38:57.730Z,5.85
2022-09-13T08:42:03.843Z,5.47
2022-09-13T08:44:35.259Z,5.75
2022-09-13T08:47:40.400Z,6.20
2022-09-13T08:50:23.544Z,5.63
2022-09-13T08:53:04.217Z,5.35
2022-09-13T08:56:03.628Z,7.13
2022-09-13T08:59:11.757Z,6.50
2022-09-13T09:01:45.047Z,6.40
2022-09-13T09:05:09.689Z,7.32
2022-09-13T09:07:43.967Z,6.45
2022-09-13T09:10:21.865Z,6.05
2022-09-13T09:13:16.147Z,5.60
2022-09-13T09:15:48.819Z,7.05
2022-09-13T09:18:23.734Z,5.82
2022-09-13T09:20:56.451Z,6.80
2022-09-13T09:23:39.345Z,7.57
2022-09-13T09:26:26.451Z,6.82
2022-09-13T09:29:05.694Z,6.47
2022-09-13T09:31:48.405Z,6.72
2022-09-13T09:34:56.322Z,6.38
2022-09-13T09:37:28.690Z,6.38
2022-09-13T09:42:32.782Z,6.70
2022-09-13T09:45:06.415Z,6.82
2022-09-13T09:47:46.872Z,6.53
2022-09-13T09:50:23.222Z,6.10
2022-09-13T09:53:14.388Z,6.20
2022-09-13T09:55:53.415Z,6.15
2022-09-13T09:58:40.719Z,5.55
2022-09-13T10:01:19.596Z,5.85
2022-09-13T10:03:52.794Z,4.70
2022-09-13T10:06:22.820Z,3.70
2022-09-13T10:09:00.356Z,3.63
2022-09-13T10:12:00.040Z,3.63
2022-09-13T10:14:34.786Z,3.35
2022-09-13T10:17:24.006Z,3.35
2022-09-13T10:20:21.086Z,3.35
2022-09-13T10:23:16.411Z,3.25
2022-09-13T10:25:48.122Z,3.10
2022-09-13T10:28:19.477Z,3.88
2022-09-13T10:30:56.311Z,3.65
2022-09-13T10:33:37.450Z,2.80
2022-09-13T10:39:21.302Z,2.35
2022-09-13T10:42:06.807Z,3.47
2022-09-13T10:44:53.429Z,3.00
2022-09-13T10:47:24.059Z,3.30
2022-09-13T10:49:56.023Z,3.78
2022-09-13T10:52:55.674Z,3.90
2022-09-13T10:55:40.543Z,3.50
2022-09-13T10:58:17.637Z,3.92
2022-09-13T11:01:04.481Z,4.40
2022-09-13T11:04:14.243Z,4.10
2022-09-13T11:07:21.880Z,4.40
2022-09-13T11:10:20.964Z,4.75
2022-09-13T11:13:06.259Z,4.53
2022-09-13T11:15:46.877Z,4.32
2022-09-13T11:18:44.234Z,4.35
2022-09-13T11:21:26.636Z,4.57
2022-09-13T11:24:37.426Z,4.32
2022-09-13T11:27:38.030Z,4.28
2022-09-13T11:30:57.639Z,5.05
2022-09-13T11:33:54.024Z,4.55
2022-09-13T11:40:46.507Z,4.15
2022-09-13T11:43:33.305Z,3.63
2022-09-13T11:46:19.989Z,3.55
2022-09-13T11:49:01.460Z,3.30
2022-09-13T11:52:06.350Z,4.05
2022-09-13T11:55:15.302Z,4.22
2022-09-13T11:57:48.545Z,3.72
2022-09-13T12:00:45.609Z,3.33
2022-09-13T12:03:23.655Z,3.45
2022-09-13T12:06:25.039Z,2.95
2022-09-13T12:08:57.089Z,3.55
2022-09-13T12:11:39.918Z,3.10
2022-09-13T12:14:17.633Z,3.50
2022-09-13T12:16:51.779Z,3.33
2022-09-13T12:19:18.282Z,4.18
2022-09-13T12:21:48.248Z,3.42
2022-09-13T12:24:21.916Z,3.85
2022-09-13T12:26:55.574Z,3.78
2022-09-13T12:29:40.535Z,3.42
2022-09-13T12:32:09.786Z,3.10
2022-09-13T12:34:48.467Z,3.70
2022-09-13T12:38:01.064Z,3.20
2022-09-13T12:40:38.685Z,3.40
2022-09-13T12:43:34.855Z,3.00
2022-09-13T12:46:50.439Z,3.30
2022-09-13T12:50:01.713Z,3.00
2022-09-13T12:53:19.558Z,2.85
2022-09-13T12:56:31.422Z,3.13
2022-09-13T12:59:35.656Z,2.83
2022-09-13T13:02:22.167Z,2.80
2022-09-13T13:04:54.476Z,3.03
2022-09-13T13:07:23.353Z,2.42
2022-09-13T13:09:53.341Z,2.40
2022-09-13T13:15:50.446Z,2.25
2022-09-13T13:18:49.066Z,2.65
2022-09-13T13:21:35.985Z,2.78
2022-09-13T13:24:37.936Z,2.45
2022-09-13T13:27:35.466Z,2.50
2022-09-13T13:30:40.506Z,2.40
2022-09-13T13:33:18.474Z,2.13
2022-09-13T13:35:45.677Z,2.45
2022-09-13T13:38:40.755Z,2.78
2022-09-13T13:41:27.499Z,2.28
2022-09-13T13:43:54.193Z,2.25
2022-09-13T13:46:30.066Z,2.72
2022-09-13T13:49:17.562Z,2.30
2022-09-13T13:51:44.165Z,2.00
2022-09-13T13:54:31.994Z,2.53
2022-09-13T13:56:59.235Z,2.67
2022-09-13T13:59:30.781Z,3.22
2022-09-13T14:02:01.669Z,2.67
2022-09-13T14:04:42.208Z,3.10
2022-09-13T14:07:29.406Z,3.47
2022-09-13T14:10:12.789Z,3.17
2022-09-13T14:13:18.679Z,2.80
2022-09-13T14:16:31.010Z,2.88
2022-09-13T14:19:24.141Z,2.65
2022-09-13T14:22:05.538Z,3.00
2022-09-13T14:24:38.241Z,2.90
2022-09-13T14:27:09.348Z,2.50
2022-09-13T14:29:36.371Z,2.03
2022-09-13T14:32:10.720Z,2.38
2022-09-13T14:34:39.161Z,2.72
2022-09-13T14:37:16.144Z,2.88
2022-09-13T14:39:57.640Z,3.95
2022-09-13T14:42:24.354Z,6.03
2022-09-13T14:44:51.085Z,4.88
2022-09-13T14:47:32.716Z,3.00
2022-09-13T14:50:12.574Z,4.30
2022-09-13T14:52:48.829Z,3.65
2022-09-13T14:55:21.670Z,3.55
2022-09-13T14:57:58.397Z,3.63
2022-09-13T15:00:26.570Z,3.25
2022-09-13T15:02:57.541Z,3.60
2022-09-13T15:05:27.913Z,3.75
2022-09-13T15:07:54.664Z,4.10
2022-09-13T15:10:28.492Z,3.80
2022-09-13T15:12:57.794Z,3.05
2022-09-13T15:15:32.551Z,2.88
2022-09-13T15:18:25.743Z,2.80
2022-09-13T15:20:59.088Z,3.25
2022-09-13T15:23:38.630Z,3.08
2022-09-13T15:26:11.536Z,2.97
2022-09-13T15:29:00.518Z,3.00
2022-09-13T15:31:29.671Z,3.40
2022-09-13T15:34:31.625Z,3.58
2022-09-13T15:37:06.477Z,3.67
2022-09-13T15:39:48.405Z,3.30
2022-09-13T15:42:17.236Z,2.40
2022-09-13T15:44:44.059Z,2.90
2022-09-13T15:47:16.078Z,4.22
2022-09-13T15:49:50.181Z,3.17
2022-09-13T15:52:18.770Z,3.00
2022-09-13T15:54:49.180Z,3.20
2022-09-13T15:57:23.478Z,3.53
2022-09-13T15:59:50.773Z,3.15
2022-09-13T16:02:27.419Z,3.40
2022-09-13T16:04:55.643Z,3.20
2022-09-13T16:07:25.875Z,3.42
2022-09-13T16:09:53.614Z,3.13
2022-09-13T16:12:23.557Z,2.90
2022-09-13T16:14:50.799Z,4.30
2022-09-13T16:17:21.658Z,3.05
2022-09-13T16:19:48.480Z,2.97
2022-09-13T16:22:15.418Z,3.00
2022-09-13T16:24:42.062Z,3.13
2022-09-13T16:27:12.533Z,3.38
2022-09-13T16:29:39.236Z,2.50
2022-09-13T16:32:05.887Z,3.28
2022-09-13T16:34:32.651Z,3.63
2022-09-13T16:36:59.492Z,3.13
2022-09-13T16:39:26.137Z,4.57
2022-09-13T16:41:52.802Z,3.28
2022-09-13T16:44:19.484Z,3.65
2022-09-13T16:46:46.235Z,3.08
2022-09-13T16:49:12.943Z,3.95
2022-09-13T16:51:39.520Z,4.45
2022-09-13T16:54:06.232Z,4.13
2022-09-13T16:56:32.984Z,3.35
2022-09-13T16:58:59.594Z,3.50
2022-09-13T17:01:28.644Z,3.22
2022-09-13T17:03:56.439Z,4.40
2022-09-13T17:06:25.147Z,3.58
2022-09-13T17:08:57.409Z,4.10
2022-09-13T17:13:52.315Z,4.63
2022-09-13T17:16:22.937Z,3.97
2022-09-13T17:18:50.676Z,3.65
2022-09-13T17:21:17.441Z,4.20
2022-09-13T17:23:44.182Z,3.55
2022-09-13T17:26:11.326Z,3.85
2022-09-13T17:28:38.549Z,3.88
2022-09-13T17:31:05.820Z,4.55
2022-09-13T17:33:32.608Z,3.88
2022-09-13T17:36:04.499Z,3.90
2022-09-13T17:38:31.140Z,3.75
2022-09-13T17:41:06.975Z,4.32
2022-09-13T17:43:34.210Z,3.88
2022-09-13T17:46:05.607Z,3.45
2022-09-13T17:48:32.574Z,3.67
2022-09-13T17:51:10.985Z,3.70
2022-09-13T17:53:43.716Z,4.60
2022-09-13T17:56:10.544Z,3.92
2022-09-13T17:58:37.330Z,3.50
2022-09-13T18:01:06.676Z,3.58
2022-09-13T18:03:34.049Z,3.78
2022-09-13T18:06:01.610Z,4.10
2022-09-13T18:08:30.749Z,4.10
2022-09-13T18:11:23.805Z,3.70
2022-09-13T18:13:51.961Z,4.28
2022-09-13T18:16:24.634Z,3.67
2022-09-13T18:18:54.279Z,4.85
2022-09-13T18:21:23.260Z,3.83
2022-09-13T18:23:52.528Z,3.90
2022-09-13T18:26:21.741Z,3.70
2022-09-13T18:28:54.223Z,3.63
2022-09-13T18:31:20.791Z,4.15
2022-09-13T18:33:48.057Z,3.60
2022-09-13T18:36:17.771Z,4.22
2022-09-13T18:38:46.862Z,3.90
2022-09-13T18:41:22.385Z,4.00
2022-09-13T18:43:55.203Z,3.53
2022-09-13T18:46:25.897Z,3.30
2022-09-13T18:48:54.262Z,3.95
2022-09-13T18:51:22.850Z,3.78
2022-09-13T18:53:51.437Z,4.43
2022-09-13T18:56:20.620Z,4.20
2022-09-13T18:58:47.761Z,6.32
2022-09-13T19:01:18.033Z,5.90
2022-09-13T19:03:56.358Z,4.30
2022-09-13T19:06:27.448Z,4.80
2022-09-13T19:08:55.692Z,5.10
2022-09-13T19:11:45.216Z,4.00
2022-09-13T19:14:14.011Z,4.35
2022-09-13T19:16:40.568Z,5.15
2022-09-13T19:19:07.137Z,4.65
2022-09-13T19:21:33.989Z,4.22
2022-09-13T19:24:04.192Z,4.65
2022-09-13T19:26:37.246Z,4.45
2022-09-13T19:29:06.651Z,4.70
2022-09-13T19:31:39.269Z,4.43
2022-09-13T19:34:07.209Z,5.38
2022-09-13T19:36:36.129Z,5.03
2022-09-13T19:39:04.171Z,4.60
2022-09-13T19:41:32.462Z,5.03
2022-09-13T19:44:01.565Z,4.80
2022-09-13T19:46:33.788Z,4.38
2022-09-13T19:49:01.678Z,3.92
2022-09-13T19:51:31.172Z,4.93
2022-09-13T19:53:59.052Z,4.43
2022-09-13T19:56:28.117Z,4.40
2022-09-13T19:58:54.724Z,4.50
2022-09-13T20:01:33.995Z,4.55
2022-09-13T20:04:02.891Z,4.80
2022-09-13T20:06:40.601Z,3.67
2022-09-13T20:09:08.967Z,4.03
2022-09-13T20:11:41.291Z,5.07
2022-09-13T20:14:09.126Z,5.28
2022-09-13T20:16:37.697Z,4.60
2022-09-13T20:19:18.351Z,4.38
2022-09-13T20:21:51.876Z,4.00
2022-09-13T20:24:18.929Z,3.83
2022-09-13T20:26:45.907Z,3.97
2022-09-13T20:29:13.685Z,4.53
2022-09-13T20:31:40.406Z,3.72
2022-09-13T20:34:08.429Z,4.53
2022-09-13T20:36:37.007Z,5.32
2022-09-13T20:39:05.082Z,4.00
2022-09-13T20:41:32.198Z,4.95
2022-09-13T20:43:59.861Z,3.92
2022-09-13T20:46:27.193Z,4.28
2022-09-13T20:48:53.892Z,4.20
2022-09-13T20:51:22.424Z,3.75
2022-09-13T20:53:53.930Z,4.35
2022-09-13T20:56:20.517Z,4.07
2022-09-13T20:58:47.601Z,3.75
2022-09-13T21:01:20.752Z,4.10
2022-09-13T21:03:50.466Z,4.22
2022-09-13T21:06:18.297Z,3.47
2022-09-13T21:08:49.404Z,3.72
2022-09-13T21:11:36.206Z,4.18
2022-09-13T21:14:05.585Z,4.10
2022-09-13T21:16:39.012Z,3.72
2022-09-13T21:19:06.182Z,4.78
2022-09-13T21:21:35.010Z,4.65
2022-09-13T21:24:04.410Z,4.45
2022-09-13T21:26:32.166Z,4.00
2022-09-13T21:28:59.163Z,4.47
2022-09-13T21:31:28.932Z,4.55
2022-09-13T21:34:06.165Z,5.15
2022-09-13T21:36:35.187Z,4.22
2022-09-13T21:39:02.348Z,3.95
2022-09-13T21:41:29.705Z,3.25
2022-09-13T21:43:56.566Z,4.20
2022-09-13T21:46:25.844Z,3.60
2022-09-13T21:48:55.257Z,3.75
2022-09-13T21:51:31.128Z,4.00
2022-09-13T21:53:59.465Z,4.25
2022-09-13T21:56:28.228Z,4.15
2022-09-13T21:59:00.024Z,4.25
2022-09-13T22:01:29.777Z,4.88
2022-09-13T22:03:57.250Z,4.97
2022-09-13T22:06:24.686Z,5.13
2022-09-13T22:08:56.587Z,5.05
2022-09-13T22:11:25.656Z,4.50
2022-09-13T22:13:53.668Z,4.97
2022-09-13T22:16:25.797Z,4.88
2022-09-13T22:19:05.481Z,4.20
2022-09-13T22:21:37.277Z,4.72
2022-09-13T22:24:05.444Z,4.60
2022-09-13T22:26:35.474Z,5.03
2022-09-13T22:29:02.265Z,5.35
2022-09-13T22:31:31.405Z,4.80
2022-09-13T22:33:59.394Z,5.45
2022-09-13T22:36:26.357Z,4.28
2022-09-13T22:38:55.094Z,4.85
2022-09-13T22:41:28.337Z,5.22
2022-09-13T22:43:55.715Z,4.47
2022-09-13T22:46:24.948Z,4.75
2022-09-13T22:48:53.292Z,4.70
2022-09-13T22:51:20.882Z,5.40
2022-09-13T22:53:49.213Z,4.45
2022-09-13T22:56:22.287Z,4.40
2022-09-13T22:58:53.984Z,5.00
2022-09-13T23:01:21.586Z,5.88
2022-09-13T23:03:48.943Z,4.60
2022-09-13T23:06:20.320Z,4.93
2022-09-13T23:08:48.809Z,4.72
2022-09-13T23:11:24.199Z,4.70
2022-09-13T23:13:52.777Z,4.80
2022-09-13T23:16:20.469Z,5.40
2022-09-13T23:18:47.852Z,5.25
2022-09-13T23:21:17.405Z,4.32
2022-09-13T23:23:44.241Z,4.75
2022-09-13T23:26:17.392Z,5.00
2022-09-13T23:28:45.960Z,4.55
2022-09-13T23:31:14.922Z,5.32
2022-09-13T23:33:52.914Z,5.65
2022-09-13T23:36:22.880Z,5.57
2022-09-13T23:38:51.693Z,5.35
2022-09-13T23:41:19.571Z,5.43
2022-09-13T23:43:47.019Z,5.20
2022-09-13T23:46:14.637Z,5.28
2022-09-13T23:48:44.577Z,5.60
2022-09-13T23:51:14.481Z,5.55
2022-09-13T23:53:41.223Z,5.15
2022-09-13T23:56:08.493Z,5.28
2022-09-13T23:58:37.685Z,4.95
